Time;durP1;ratioP1;P1;durP2;ratioP2;P2;SDS_P1;SDS_P2;PMS_P1;PMS_P2;Temp;Humidity;BMP_temperature;BMP_pressure;BME280_temperature;BME280_humidity;BME280_pressure;Samples;Min_cycle;Max_cycle;Signal;HPM_P1;HPM_P2
2022/05/13 00:00:07;;;;;;;6.80;6.13;;;16.80;99.90;;;;;;5037356;28;20052;-80
2022/05/13 00:02:33;;;;;;;6.32;5.82;;;16.80;99.90;;;;;;5026138;28;20022;-80
2022/05/13 00:04:58;;;;;;;5.18;4.78;;;16.80;99.90;;;;;;5034924;28;20029;-80
2022/05/13 00:07:24;;;;;;;5.97;5.35;;;16.90;99.90;;;;;;5018829;28;20033;-80
2022/05/13 00:10:01;;;;;;;6.80;6.20;;;16.90;99.90;;;;;;5036842;28;20033;-80
2022/05/13 00:12:30;;;;;;;6.60;6.00;;;16.90;99.90;;;;;;5036686;28;20163;-80
2022/05/13 00:14:56;;;;;;;6.45;5.90;;;16.90;99.90;;;;;;5036585;28;20029;-80
2022/05/13 00:17:23;;;;;;;7.03;6.32;;;16.80;99.90;;;;;;5036761;28;20021;-79
2022/05/13 00:19:49;;;;;;;7.38;6.68;;;16.80;99.90;;;;;;5037626;28;20026;-80
2022/05/13 00:22:15;;;;;;;6.50;6.00;;;16.80;99.90;;;;;;5036688;28;20536;-80
2022/05/13 00:24:41;;;;;;;6.50;5.90;;;16.80;99.90;;;;;;5019098;28;20028;-80
2022/05/13 00:27:07;;;;;;;7.97;7.28;;;16.80;99.90;;;;;;5036521;28;20026;-79
2022/05/13 00:29:34;;;;;;;8.30;7.43;;;16.90;99.90;;;;;;5037179;28;20374;-79
2022/05/13 00:32:00;;;;;;;8.05;7.28;;;16.90;99.90;;;;;;5027674;28;20140;-79
2022/05/13 00:34:26;;;;;;;7.72;7.03;;;16.90;99.90;;;;;;5019191;28;20071;-79
2022/05/13 00:36:52;;;;;;;8.13;7.43;;;16.90;99.90;;;;;;5036816;28;20033;-80
2022/05/13 00:39:19;;;;;;;7.18;6.57;;;16.90;99.90;;;;;;5038213;28;20056;-80
2022/05/13 00:41:46;;;;;;;6.80;6.20;;;16.90;99.90;;;;;;5037668;28;20029;-80
2022/05/13 00:44:12;;;;;;;6.68;6.03;;;16.90;99.90;;;;;;5039556;28;20532;-79
2022/05/13 00:46:38;;;;;;;6.72;6.13;;;16.90;99.90;;;;;;5045452;28;20018;-78
2022/05/13 00:49:09;;;;;;;6.45;5.93;;;16.90;99.90;;;;;;5043142;28;20025;-80
2022/05/13 00:51:47;;;;;;;6.82;6.13;;;16.90;99.90;;;;;;5039370;28;20034;-79
2022/05/13 00:54:16;;;;;;;6.53;5.93;;;16.90;99.90;;;;;;5036545;28;20056;-79
2022/05/13 00:56:44;;;;;;;6.22;5.63;;;16.90;99.90;;;;;;5036410;28;20074;-79
2022/05/13 00:59:14;;;;;;;6.88;6.18;;;16.90;99.90;;;;;;5035098;28;20131;-79
2022/05/13 01:01:40;;;;;;;6.60;5.68;;;16.90;99.90;;;;;;5023768;28;20096;-80
2022/05/13 01:04:09;;;;;;;5.85;5.35;;;16.90;99.90;;;;;;5018174;28;20025;-78
2022/05/13 01:06:35;;;;;;;5.25;4.75;;;16.90;99.90;;;;;;5016305;28;20022;-79
2022/05/13 01:09:03;;;;;;;5.55;5.15;;;17.00;99.90;;;;;;5015981;28;20034;-79
2022/05/13 01:11:33;;;;;;;5.90;5.25;;;17.00;99.90;;;;;;5016897;28;20034;-79
2022/05/13 01:14:11;;;;;;;5.82;5.28;;;17.00;99.90;;;;;;5018142;28;20026;-80
2022/05/13 01:19:22;;;;;;;5.30;4.82;;;17.00;99.90;;;;;;5038071;28;20044;-79
2022/05/13 01:21:48;;;;;;;5.70;5.20;;;17.00;99.90;;;;;;5039411;28;20049;-79
2022/05/13 01:24:16;;;;;;;6.90;6.25;;;17.00;99.90;;;;;;5036802;28;20087;-79
2022/05/13 01:26:42;;;;;;;6.93;5.82;;;17.00;99.90;;;;;;5017562;28;20033;-79
2022/05/13 01:29:08;;;;;;;5.38;4.88;;;17.00;99.90;;;;;;5039459;28;20229;-79
2022/05/13 01:31:37;;;;;;;6.25;5.65;;;17.00;99.90;;;;;;5046285;28;20037;-79
2022/05/13 01:34:11;;;;;;;5.70;5.20;;;17.00;99.90;;;;;;5047076;28;20033;-81
2022/05/13 01:36:39;;;;;;;5.82;5.32;;;17.00;99.90;;;;;;5049522;28;20033;-80
2022/05/13 01:39:06;;;;;;;5.28;4.78;;;17.00;99.90;;;;;;5030772;28;20464;-80
2022/05/13 01:41:33;;;;;;;7.05;6.22;;;17.00;99.90;;;;;;5048068;28;20025;-80
2022/05/13 01:43:59;;;;;;;9.90;6.50;;;17.00;99.90;;;;;;5048161;28;20022;-79
2022/05/13 01:46:26;;;;;;;6.82;6.00;;;16.90;99.90;;;;;;5044867;28;20033;-79
2022/05/13 01:48:52;;;;;;;5.97;5.47;;;16.90;99.90;;;;;;5052570;28;20018;-79
2022/05/13 01:51:19;;;;;;;8.00;6.35;;;16.90;99.90;;;;;;5055934;28;20038;-79
2022/05/13 01:53:45;;;;;;;6.75;5.55;;;16.90;99.90;;;;;;5055372;28;20030;-80
2022/05/13 01:56:11;;;;;;;7.07;5.60;;;16.90;99.90;;;;;;5055384;28;20047;-80
2022/05/13 01:58:37;;;;;;;6.18;5.57;;;16.90;99.90;;;;;;5058047;28;20052;-79
2022/05/13 02:01:05;;;;;;;6.32;5.72;;;16.90;99.90;;;;;;5024971;28;20033;-80
2022/05/13 02:03:46;;;;;;;6.45;5.85;;;16.90;99.90;;;;;;5038996;28;20036;-80
2022/05/13 02:06:23;;;;;;;6.93;6.22;;;16.90;99.90;;;;;;5039662;28;20022;-80
2022/05/13 02:08:52;;;;;;;6.05;5.50;;;16.90;99.90;;;;;;5038594;28;20056;-80
2022/05/13 02:11:20;;;;;;;6.85;6.03;;;16.90;99.90;;;;;;5041653;28;20032;-79
2022/05/13 02:13:46;;;;;;;7.75;6.10;;;16.80;99.90;;;;;;5042795;28;20507;-79
2022/05/13 02:16:13;;;;;;;6.30;5.70;;;16.80;99.90;;;;;;5042801;28;20056;-79
2022/05/13 02:18:39;;;;;;;10.73;6.47;;;16.80;99.90;;;;;;5023570;28;20025;-78
2022/05/13 02:21:06;;;;;;;11.00;6.25;;;16.80;99.90;;;;;;5028473;28;20048;-80
2022/05/13 02:23:32;;;;;;;10.98;6.40;;;16.80;99.90;;;;;;5041827;28;20049;-79
2022/05/13 02:26:01;;;;;;;7.90;5.88;;;16.80;99.90;;;;;;5038815;28;20121;-79
2022/05/13 02:28:27;;;;;;;7.35;5.82;;;16.80;99.90;;;;;;5039141;28;20029;-79
2022/05/13 02:30:53;;;;;;;8.90;6.15;;;16.80;99.90;;;;;;5038984;28;20055;-80
2022/05/13 02:33:19;;;;;;;6.25;5.65;;;16.80;99.90;;;;;;5017766;28;20026;-80
2022/05/13 02:35:45;;;;;;;9.00;6.72;;;16.80;99.90;;;;;;5020228;28;20034;-80
2022/05/13 02:38:15;;;;;;;6.65;6.05;;;16.80;99.90;;;;;;5002156;28;20022;-80
2022/05/13 02:43:26;;;;;;;6.72;5.95;;;16.80;99.90;;;;;;5036930;28;20037;-80
2022/05/13 02:45:52;;;;;;;6.68;5.82;;;16.80;99.90;;;;;;5038800;28;20417;-80
2022/05/13 02:48:18;;;;;;;9.30;6.03;;;16.80;99.90;;;;;;5037845;28;20057;-80
2022/05/13 02:50:44;;;;;;;6.90;5.80;;;16.80;99.90;;;;;;5039143;28;20505;-80
2022/05/13 02:53:09;;;;;;;6.80;6.20;;;16.80;99.90;;;;;;5020696;28;20026;-80
2022/05/13 02:55:35;;;;;;;5.95;5.20;;;16.80;99.90;;;;;;5038371;28;20055;-80
2022/05/13 02:58:01;;;;;;;8.00;5.78;;;16.80;99.90;;;;;;5037275;28;20094;-78
2022/05/13 03:00:28;;;;;;;8.98;5.50;;;16.80;99.90;;;;;;5035966;28;20366;-80
2022/05/13 03:02:53;;;;;;;7.13;5.55;;;16.80;99.90;;;;;;5037504;28;20033;-79
2022/05/13 03:05:25;;;;;;;8.27;5.60;;;16.70;99.90;;;;;;5039413;28;20033;-79
2022/05/13 03:07:51;;;;;;;5.95;5.20;;;16.70;99.90;;;;;;5037513;28;20059;-80
2022/05/13 03:10:19;;;;;;;7.90;6.03;;;16.60;99.90;;;;;;5037348;28;20037;-79
2022/05/13 03:12:46;;;;;;;6.65;6.00;;;16.60;99.90;;;;;;5036965;28;20041;-79
2022/05/13 03:15:13;;;;;;;5.93;5.40;;;16.60;99.90;;;;;;5037510;28;20052;-79
2022/05/13 03:17:42;;;;;;;7.10;5.60;;;16.60;99.90;;;;;;5037863;28;20017;-80
2022/05/13 03:20:13;;;;;;;6.93;5.55;;;16.50;99.90;;;;;;5038264;28;20029;-78
2022/05/13 03:22:38;;;;;;;6.95;6.10;;;16.50;99.90;;;;;;5036904;28;20532;-79
2022/05/13 03:25:04;;;;;;;6.35;5.70;;;16.60;99.90;;;;;;5036691;28;20030;-79
2022/05/13 03:27:31;;;;;;;6.55;5.95;;;16.60;99.90;;;;;;5036526;28;20036;-80
2022/05/13 03:29:57;;;;;;;6.38;5.75;;;16.60;99.90;;;;;;5037723;28;20017;-79
2022/05/13 03:32:23;;;;;;;6.38;5.78;;;16.50;99.90;;;;;;5037239;28;20083;-80
2022/05/13 03:34:49;;;;;;;7.00;6.13;;;16.50;99.90;;;;;;5037920;28;20037;-80
2022/05/13 03:37:14;;;;;;;6.10;5.43;;;16.50;99.90;;;;;;5021260;28;20457;-79
2022/05/13 03:39:41;;;;;;;5.68;5.15;;;16.50;99.90;;;;;;5036406;28;20025;-80
2022/05/13 03:42:09;;;;;;;6.35;5.15;;;16.50;99.90;;;;;;5037385;28;20021;-79
2022/05/13 03:44:36;;;;;;;6.07;5.05;;;16.50;99.90;;;;;;5037306;28;20033;-79
2022/05/13 03:47:05;;;;;;;6.28;5.40;;;16.50;99.90;;;;;;5037395;28;20025;-79
2022/05/13 03:49:31;;;;;;;4.90;4.38;;;16.50;99.90;;;;;;5037048;28;20363;-79
2022/05/13 03:51:57;;;;;;;4.82;4.25;;;16.40;99.90;;;;;;5038608;28;20025;-81
2022/05/13 03:54:23;;;;;;;6.55;4.22;;;16.40;99.90;;;;;;5037610;28;20033;-78
2022/05/13 03:56:49;;;;;;;4.55;4.15;;;16.40;99.90;;;;;;5037769;28;20036;-80
2022/05/13 03:59:15;;;;;;;4.53;4.07;;;16.40;99.90;;;;;;5050683;28;20047;-83
2022/05/13 04:01:41;;;;;;;3.83;3.53;;;16.40;99.90;;;;;;5051904;28;20378;-81
2022/05/13 04:04:07;;;;;;;5.55;3.75;;;16.30;99.90;;;;;;5037554;28;20034;-80
2022/05/13 04:09:17;;;;;;;4.28;3.88;;;16.30;99.90;;;;;;5037606;28;20036;-81
2022/05/13 04:16:04;;;;;;;3.95;3.47;;;16.40;99.90;;;;;;5037258;28;20538;-80
2022/05/13 04:17:13;;;;;;;3.88;3.58;;;16.40;99.90;;;;;;5058906;28;20055;-82
2022/05/13 04:19:39;;;;;;;3.65;3.33;;;16.40;99.90;;;;;;5041056;28;20473;-82
2022/05/13 04:22:04;;;;;;;3.25;2.95;;;16.40;99.90;;;;;;5043384;28;20021;-82
2022/05/13 04:24:30;;;;;;;3.65;3.35;;;16.40;99.90;;;;;;5033991;28;20073;-81
2022/05/13 04:26:56;;;;;;;2.78;2.58;;;16.50;99.90;;;;;;5053711;28;20178;-82
2022/05/13 04:29:22;;;;;;;3.03;2.83;;;16.50;99.90;;;;;;5080159;28;20044;-81
2022/05/13 04:31:48;;;;;;;3.63;3.20;;;16.50;99.90;;;;;;5083623;28;20028;-81
2022/05/13 04:34:14;;;;;;;4.38;3.97;;;16.50;99.90;;;;;;5061621;28;20096;-81
2022/05/13 04:36:41;;;;;;;4.05;3.65;;;16.60;99.90;;;;;;5085439;28;20020;-83
2022/05/13 04:39:07;;;;;;;3.95;3.65;;;16.60;99.90;;;;;;5084265;28;20032;-81
2022/05/13 04:44:19;;;;;;;4.22;3.15;;;16.80;99.90;;;;;;5070655;28;20047;-82
2022/05/13 04:46:45;;;;;;;4.25;3.92;;;16.90;99.90;;;;;;5048240;28;20040;-81
2022/05/13 04:49:10;;;;;;;4.38;3.58;;;16.90;99.90;;;;;;5066190;28;20032;-81
2022/05/13 04:51:37;;;;;;;3.42;3.22;;;16.90;99.90;;;;;;5068213;28;20009;-81
2022/05/13 04:54:04;;;;;;;4.13;3.70;;;16.90;99.90;;;;;;5051346;28;20029;-82
2022/05/13 04:56:30;;;;;;;3.97;3.67;;;16.90;99.90;;;;;;5070118;28;20021;-81
2022/05/13 04:58:57;;;;;;;4.20;3.90;;;16.90;99.90;;;;;;5073389;28;20056;-81
2022/05/13 05:01:24;;;;;;;3.83;3.50;;;17.00;99.90;;;;;;5065781;28;20033;-84
2022/05/13 05:03:51;;;;;;;3.72;3.42;;;17.00;99.90;;;;;;5062557;28;20017;-81
2022/05/13 05:06:18;;;;;;;3.85;3.55;;;17.00;99.90;;;;;;5061889;28;20107;-81
2022/05/13 05:08:44;;;;;;;3.60;3.40;;;17.10;99.90;;;;;;5060721;28;20032;-81
2022/05/13 05:11:12;;;;;;;4.03;3.58;;;17.10;99.90;;;;;;5062558;28;20029;-81
2022/05/13 05:13:44;;;;;;;5.88;4.10;;;17.20;99.90;;;;;;5072067;28;20353;-81
2022/05/13 05:16:11;;;;;;;4.95;3.67;;;17.30;99.90;;;;;;5050257;28;20056;-80
2022/05/13 05:18:38;;;;;;;5.90;3.97;;;17.40;99.90;;;;;;5044890;28;20075;-82
2022/05/13 05:21:08;;;;;;;4.78;4.10;;;17.50;99.90;;;;;;5045124;28;20025;-82
2022/05/13 05:23:38;;;;;;;4.07;3.67;;;17.60;99.90;;;;;;5066299;28;20054;-82
2022/05/13 05:26:05;;;;;;;4.63;3.53;;;17.70;99.90;;;;;;5083476;28;20033;-82
2022/05/13 05:28:32;;;;;;;3.65;3.33;;;17.70;99.90;;;;;;5083204;28;20021;-82
2022/05/13 05:31:02;;;;;;;8.13;3.42;;;17.50;99.90;;;;;;5084076;28;20028;-82
2022/05/13 05:33:28;;;;;;;3.42;2.85;;;17.40;99.90;;;;;;5083007;28;20027;-81
2022/05/13 05:35:54;;;;;;;3.30;3.00;;;17.10;99.90;;;;;;5063784;28;20036;-82
2022/05/13 05:38:20;;;;;;;3.53;3.22;;;17.00;99.90;;;;;;5066467;28;20050;-83
2022/05/13 05:40:48;;;;;;;3.67;3.30;;;16.90;99.90;;;;;;5065098;28;20029;-82
2022/05/13 05:43:16;;;;;;;4.57;3.33;;;16.90;99.90;;;;;;5070760;28;20085;-81
2022/05/13 05:45:43;;;;;;;5.47;3.65;;;16.80;99.90;;;;;;5074794;28;20052;-82
2022/05/13 05:48:14;;;;;;;4.30;3.25;;;16.80;99.90;;;;;;5084269;28;20008;-82
2022/05/13 05:50:40;;;;;;;4.03;3.58;;;16.70;99.90;;;;;;5082036;28;20110;-81
2022/05/13 05:53:06;;;;;;;5.88;3.88;;;16.60;99.90;;;;;;5082934;28;20489;-81
2022/05/13 05:58:18;;;;;;;7.32;4.38;;;16.30;99.90;;;;;;5085597;28;20027;-82
2022/05/13 06:00:47;;;;;;;6.78;3.90;;;16.20;99.90;;;;;;5085294;28;20049;-83
2022/05/13 06:03:14;;;;;;;4.32;3.75;;;16.20;99.90;;;;;;5083508;28;20013;-83
2022/05/13 06:05:41;;;;;;;5.60;4.75;;;16.20;99.90;;;;;;5082583;28;20020;-81
2022/05/13 06:08:08;;;;;;;4.07;3.78;;;16.20;99.90;;;;;;5069209;28;20053;-82
2022/05/13 06:10:38;;;;;;;5.28;4.40;;;16.30;99.90;;;;;;5062183;28;20052;-82
2022/05/13 06:13:07;;;;;;;4.80;4.40;;;16.40;99.90;;;;;;5064598;28;20047;-83
2022/05/13 06:15:33;;;;;;;5.65;4.15;;;16.60;99.90;;;;;;5053578;28;20043;-82
2022/05/13 06:17:59;;;;;;;4.40;4.00;;;16.70;99.90;;;;;;5061170;28;20054;-82
2022/05/13 06:20:31;;;;;;;5.78;4.32;;;16.80;99.90;;;;;;5065435;28;20115;-81
2022/05/13 06:22:57;;;;;;;4.10;3.70;;;16.90;99.90;;;;;;5081787;28;20366;-82
2022/05/13 06:25:26;;;;;;;4.50;3.58;;;16.90;99.90;;;;;;5061940;28;20496;-82
2022/05/13 06:27:58;;;;;;;4.50;3.50;;;16.90;99.90;;;;;;5044263;28;20157;-82
2022/05/13 06:30:28;;;;;;;3.53;3.22;;;16.90;99.90;;;;;;5062431;28;20029;-82
2022/05/13 06:32:54;;;;;;;3.63;3.22;;;16.90;99.90;;;;;;5062813;28;20092;-82
2022/05/13 06:35:22;;;;;;;3.78;3.47;;;17.00;99.90;;;;;;5062466;28;20473;-83
2022/05/13 06:37:48;;;;;;;5.05;4.55;;;17.10;99.90;;;;;;5078252;28;20025;-82
2022/05/13 06:40:14;;;;;;;4.10;3.70;;;17.30;99.90;;;;;;5064734;28;20147;-82
2022/05/13 06:42:40;;;;;;;5.93;3.58;;;17.50;99.90;;;;;;5069939;28;20021;-81
2022/05/13 06:45:06;;;;;;;4.53;3.97;;;17.80;99.90;;;;;;5057482;28;20039;-83
2022/05/13 06:47:32;;;;;;;4.53;4.13;;;18.10;99.90;;;;;;5081041;28;20081;-83
2022/05/13 06:50:04;;;;;;;4.43;3.50;;;18.40;99.90;;;;;;5062241;28;20393;-83
2022/05/13 06:52:30;;;;;;;3.72;3.42;;;18.90;99.90;;;;;;5045137;28;20021;-82
2022/05/13 06:54:56;;;;;;;3.53;3.22;;;19.20;99.90;;;;;;5062044;28;20032;-82
2022/05/13 06:57:22;;;;;;;4.28;3.60;;;19.40;99.90;;;;;;5055332;28;20017;-81
2022/05/13 06:59:50;;;;;;;3.00;2.63;;;21.10;99.90;;;;;;5063365;28;20029;-84
2022/05/13 07:02:21;;;;;;;3.78;2.97;;;22.60;95.20;;;;;;5082084;28;20374;-82
2022/05/13 07:04:47;;;;;;;2.72;2.53;;;22.60;92.50;;;;;;5063469;28;20028;-82
2022/05/13 07:07:13;;;;;;;3.00;2.70;;;22.20;91.60;;;;;;5081756;28;20085;-83
2022/05/13 07:09:40;;;;;;;2.65;2.45;;;21.60;92.30;;;;;;5081367;28;20021;-82
2022/05/13 07:12:07;;;;;;;3.05;2.78;;;21.30;92.70;;;;;;5080226;28;20020;-82
2022/05/13 07:14:34;;;;;;;3.25;2.95;;;21.10;93.20;;;;;;5078733;28;20029;-82
2022/05/13 07:17:01;;;;;;;3.25;2.92;;;21.10;93.10;;;;;;5070423;28;20020;-82
2022/05/13 07:19:26;;;;;;;3.40;2.97;;;21.30;92.70;;;;;;5044478;28;20021;-82
2022/05/13 07:21:52;;;;;;;4.43;3.40;;;21.30;92.30;;;;;;5060217;28;20088;-83
2022/05/13 07:24:18;;;;;;;5.78;3.25;;;21.30;91.80;;;;;;5061607;28;20028;-82
2022/05/13 07:26:44;;;;;;;8.75;3.88;;;21.00;91.60;;;;;;5060042;28;20032;-83
2022/05/13 07:29:09;;;;;;;3.47;3.17;;;21.00;91.60;;;;;;5057500;28;20032;-82
2022/05/13 07:31:35;;;;;;;3.70;3.03;;;21.00;91.80;;;;;;5083298;28;20024;-82
2022/05/13 07:34:02;;;;;;;3.33;2.92;;;21.00;91.80;;;;;;5089681;28;20134;-82
2022/05/13 07:36:28;;;;;;;3.45;2.83;;;21.00;92.00;;;;;;5089026;28;20095;-82
2022/05/13 07:41:39;;;;;;;3.83;2.60;;;21.40;91.50;;;;;;5089111;28;20081;-80
2022/05/13 07:44:06;;;;;;;2.63;2.40;;;21.80;90.80;;;;;;5090480;28;20473;-82
2022/05/13 07:46:32;;;;;;;2.63;2.45;;;22.00;90.50;;;;;;5085296;28;20039;-82
2022/05/13 07:48:58;;;;;;;3.35;2.75;;;22.10;90.30;;;;;;5065728;28;20123;-82
2022/05/13 07:51:26;;;;;;;3.80;3.42;;;22.10;89.80;;;;;;5067959;28;20045;-81
2022/05/13 07:53:52;;;;;;;5.03;3.42;;;22.20;89.40;;;;;;5067891;28;20028;-81
2022/05/13 07:56:19;;;;;;;4.43;3.45;;;22.50;89.00;;;;;;5068311;28;20027;-81
2022/05/13 07:58:44;;;;;;;5.55;3.72;;;22.70;85.80;;;;;;5048221;28;20040;-81
2022/05/13 08:01:10;;;;;;;3.28;2.97;;;22.50;85.10;;;;;;5048742;28;20053;-82
2022/05/13 08:03:36;;;;;;;5.25;2.85;;;22.20;86.50;;;;;;5067214;28;20104;-81
2022/05/13 08:06:06;;;;;;;7.28;3.20;;;22.20;87.10;;;;;;5048421;28;20049;-81
2022/05/13 08:08:41;;;;;;;4.63;2.75;;;22.20;86.80;;;;;;5080872;28;20016;-81
2022/05/13 08:11:10;;;;;;;3.72;3.15;;;22.40;87.20;;;;;;5067273;28;20032;-82
2022/05/13 08:13:37;;;;;;;3.13;2.90;;;22.60;85.30;;;;;;5083110;28;20035;-83
2022/05/13 08:16:05;;;;;;;3.70;3.08;;;22.90;83.90;;;;;;5076722;28;20511;-83
2022/05/13 08:18:31;;;;;;;3.42;3.22;;;23.30;82.40;;;;;;5048494;28;20021;-83
2022/05/13 08:20:57;;;;;;;4.18;3.42;;;23.60;78.70;;;;;;5042207;28;20585;-82
2022/05/13 08:23:23;;;;;;;4.43;3.47;;;24.00;78.70;;;;;;5060886;28;20068;-83
2022/05/13 08:25:49;;;;;;;3.08;2.78;;;24.10;77.20;;;;;;5042345;28;20021;-83
2022/05/13 08:28:18;;;;;;;3.10;2.80;;;24.40;77.00;;;;;;5067315;28;20020;-82
2022/05/13 08:30:44;;;;;;;6.38;3.17;;;24.50;75.30;;;;;;5078872;28;20020;-82
2022/05/13 08:33:11;;;;;;;4.35;3.60;;;24.50;74.20;;;;;;5061931;28;20025;-82
2022/05/13 08:35:57;;;;;;;5.10;2.80;;;24.40;72.40;;;;;;5081737;28;20097;-81
2022/05/13 08:38:27;;;;;;;5.07;3.05;;;24.30;73.50;;;;;;5078376;28;20024;-82
2022/05/13 08:41:10;;;;;;;4.22;2.70;;;24.20;72.10;;;;;;5081152;28;20469;-83
2022/05/13 08:43:51;;;;;;;7.72;3.35;;;24.30;72.10;;;;;;5065777;28;20091;-83
2022/05/13 08:46:17;;;;;;;6.45;3.00;;;24.50;71.40;;;;;;5064471;28;20453;-83
2022/05/13 08:49:01;;;;;;;5.03;3.38;;;24.50;71.00;;;;;;5050427;28;20040;-84
2022/05/13 08:51:30;;;;;;;7.57;3.10;;;24.00;71.50;;;;;;5042234;28;20025;-82
2022/05/13 08:54:20;;;;;;;4.53;3.50;;;23.50;72.70;;;;;;5060085;28;20377;-83
2022/05/13 08:56:56;;;;;;;4.25;3.20;;;22.80;75.40;;;;;;5059566;28;20108;-83
2022/05/13 08:59:52;;;;;;;7.05;3.78;;;22.10;78.80;;;;;;5058405;28;20021;-83
2022/05/13 09:02:24;;;;;;;3.70;3.40;;;21.60;81.20;;;;;;5041382;28;20032;-82
2022/05/13 09:05:32;;;;;;;4.68;4.00;;;21.00;83.40;;;;;;5059177;28;20113;-83
2022/05/13 09:08:00;;;;;;;4.15;3.67;;;20.40;87.20;;;;;;4984375;28;20043;-83
2022/05/13 09:10:26;;;;;;;9.20;4.10;;;20.10;89.90;;;;;;4981530;28;20053;-83
2022/05/13 09:12:58;;;;;;;9.32;4.20;;;19.90;90.90;;;;;;5028606;28;20036;-82
2022/05/13 09:15:43;;;;;;;8.90;4.68;;;19.70;91.70;;;;;;5049088;28;20477;-81
2022/05/13 09:18:17;;;;;;;8.20;4.22;;;19.50;93.10;;;;;;5078372;28;20055;-82
2022/05/13 09:20:57;;;;;;;6.28;4.07;;;19.20;94.50;;;;;;5079856;28;20074;-81
2022/05/13 09:23:24;;;;;;;7.75;5.10;;;18.80;96.00;;;;;;5080700;28;20051;-82
2022/05/13 09:26:03;;;;;;;9.32;6.32;;;18.70;97.40;;;;;;5065052;28;20036;-81
2022/05/13 09:28:32;;;;;;;10.15;5.82;;;18.50;98.80;;;;;;5061940;28;20036;-82
2022/05/13 09:31:20;;;;;;;23.98;6.88;;;18.10;99.90;;;;;;5060980;28;20047;-83
2022/05/13 09:33:47;;;;;;;11.77;5.80;;;17.30;99.90;;;;;;5061645;28;20044;-82
2022/05/13 09:37:05;;;;;;;10.18;5.95;;;16.60;99.90;;;;;;5061316;28;20142;-83
2022/05/13 09:40:10;;;;;;;4.35;3.95;;;16.10;99.90;;;;;;4979749;28;20019;-84
2022/05/13 09:43:01;;;;;;;5.47;3.47;;;15.90;99.90;;;;;;5014228;28;20052;-84
2022/05/13 09:45:33;;;;;;;3.58;3.03;;;15.80;99.90;;;;;;5053739;28;20025;-83
2022/05/13 09:48:15;;;;;;;3.90;3.47;;;15.70;99.90;;;;;;5063146;28;20059;-82
2022/05/13 09:50:49;;;;;;;6.97;5.43;;;15.60;99.90;;;;;;5060858;28;20032;-83
2022/05/13 09:53:21;;;;;;;7.65;5.85;;;15.60;99.90;;;;;;5079928;28;20117;-84
2022/05/13 09:55:50;;;;;;;8.18;5.78;;;15.70;99.90;;;;;;5062316;28;20119;-83
2022/05/13 09:58:20;;;;;;;7.28;5.80;;;15.80;99.90;;;;;;5064708;28;20370;-84
2022/05/13 10:00:51;;;;;;;6.05;5.45;;;16.00;99.90;;;;;;5062394;28;20082;-84
2022/05/13 10:03:21;;;;;;;5.82;5.22;;;16.00;99.90;;;;;;5045212;28;20032;-83
2022/05/13 10:06:11;;;;;;;9.88;7.00;;;16.10;99.90;;;;;;5044999;28;20055;-84
2022/05/13 10:14:39;;;;;;;10.10;6.93;;;16.00;99.90;;;;;;5063079;28;20047;-83
2022/05/13 10:17:11;;;;;;;7.85;6.55;;;16.10;99.90;;;;;;5105474;22;20564;-83
2022/05/13 10:19:37;;;;;;;;;;;16.20;99.90;;;;;;5066925;28;20048;-84
2022/05/13 10:22:28;;;;;;;5.15;4.32;;;16.10;99.90;;;;;;5065743;28;19912;-85
2022/05/13 10:25:05;;;;;;;5.10;4.22;;;15.90;99.90;;;;;;5064964;28;20081;-84
2022/05/13 10:27:37;;;;;;;5.97;4.75;;;15.70;99.90;;;;;;5048170;28;20026;-86
2022/05/13 10:30:20;;;;;;;6.30;5.37;;;15.40;99.90;;;;;;5044331;28;20040;-84
2022/05/13 10:33:22;;;;;;;7.40;5.93;;;15.30;99.90;;;;;;5027613;28;20029;-84
2022/05/13 10:35:56;;;;;;;6.85;5.45;;;15.10;99.90;;;;;;5026083;28;20052;-84
2022/05/13 10:38:31;;;;;;;5.82;5.10;;;14.90;99.90;;;;;;5023505;28;20052;-83
2022/05/13 10:41:22;;;;;;;9.27;6.63;;;14.90;99.90;;;;;;5017672;28;20048;-84
2022/05/13 10:44:28;;;;;;;10.18;6.30;;;14.90;99.90;;;;;;5023550;28;20089;-84
2022/05/13 10:47:00;;;;;;;8.85;6.25;;;14.90;99.90;;;;;;5019025;28;20075;-84
2022/05/13 10:49:34;;;;;;;7.85;6.32;;;14.90;99.90;;;;;;5024757;28;20018;-85
2022/05/13 10:52:30;;;;;;;13.70;7.80;;;14.90;99.90;;;;;;5044000;28;20017;-85
2022/05/13 10:54:58;;;;;;;11.00;7.47;;;14.80;99.90;;;;;;5023332;28;20040;-85
2022/05/13 10:57:27;;;;;;;12.57;7.63;;;14.70;99.90;;;;;;5042416;28;20033;-85
2022/05/13 10:59:58;;;;;;;7.88;7.03;;;14.70;99.90;;;;;;5041391;28;20536;-85
2022/05/13 11:02:30;;;;;;;9.37;7.97;;;14.70;99.90;;;;;;5017838;28;20085;-85
2022/05/13 11:05:20;;;;;;;12.18;7.97;;;14.70;99.90;;;;;;5005144;28;20551;-85
2022/05/13 11:08:04;;;;;;;9.50;7.50;;;14.70;99.90;;;;;;5019907;28;20026;-85
2022/05/13 11:10:44;;;;;;;9.35;7.65;;;14.80;99.90;;;;;;5022106;28;20026;-86
2022/05/13 11:13:27;;;;;;;13.00;8.38;;;14.80;99.90;;;;;;5023556;28;20029;-85
2022/05/13 11:16:31;;;;;;;9.18;7.90;;;14.80;99.90;;;;;;5004145;28;20049;-85
2022/05/13 11:19:05;;;;;;;8.38;7.13;;;14.90;99.90;;;;;;4956207;28;20039;-85
2022/05/13 11:21:39;;;;;;;7.65;6.53;;;15.00;99.90;;;;;;5021734;28;20018;-86
2022/05/13 11:27:22;;;;;;;5.90;5.30;;;15.30;99.90;;;;;;5006456;28;20030;-86
2022/05/13 11:30:08;;;;;;;5.68;5.15;;;15.60;99.90;;;;;;5013602;28;20057;-86
2022/05/13 11:33:11;;;;;;;4.47;4.07;;;16.00;99.90;;;;;;5013509;28;20029;-86
2022/05/13 11:35:43;;;;;;;3.97;3.65;;;15.90;99.90;;;;;;5019432;28;20080;-87
2022/05/13 11:38:22;;;;;;;3.50;3.20;;;15.80;99.90;;;;;;5031931;28;20079;-87
2022/05/13 11:41:03;;;;;;;3.33;3.03;;;15.80;99.90;;;;;;5022731;28;20030;-86
2022/05/13 11:43:42;;;;;;;3.80;3.35;;;15.80;99.90;;;;;;5014999;28;20025;-88
2022/05/13 11:46:13;;;;;;;4.25;3.95;;;15.70;99.90;;;;;;5004316;28;20478;-87
2022/05/13 11:48:47;;;;;;;4.32;3.92;;;15.70;99.90;;;;;;5004302;28;20036;-87
2022/05/13 11:51:20;;;;;;;4.40;4.00;;;15.60;99.90;;;;;;5024068;28;20046;-85
2022/05/13 11:54:14;;;;;;;4.88;3.90;;;15.60;99.90;;;;;;5025117;28;20021;-85
2022/05/13 11:56:43;;;;;;;4.28;3.88;;;15.70;99.90;;;;;;5027100;28;20040;-86
2022/05/13 11:59:28;;;;;;;3.80;3.50;;;15.90;99.90;;;;;;5034080;28;20556;-85
2022/05/13 12:02:16;;;;;;;3.85;3.30;;;16.10;99.90;;;;;;5026885;28;20025;-86
2022/05/13 12:05:24;;;;;;;3.55;3.25;;;16.40;99.90;;;;;;5008098;28;20104;-85
2022/05/13 12:08:03;;;;;;;3.03;2.83;;;17.00;99.90;;;;;;5027682;28;20059;-85
2022/05/13 12:10:48;;;;;;;2.10;1.92;;;17.60;99.90;;;;;;5043431;28;20017;-86
2022/05/13 12:13:23;;;;;;;2.30;2.10;;;18.20;99.90;;;;;;5040599;28;20026;-86
2022/05/13 12:16:05;;;;;;;2.50;2.30;;;18.30;99.90;;;;;;5037935;28;20045;-83
2022/05/13 12:18:38;;;;;;;2.72;2.53;;;18.30;99.90;;;;;;5027348;28;20080;-84
2022/05/13 12:21:07;;;;;;;3.08;2.83;;;18.30;99.90;;;;;;5046453;28;20024;-85
2022/05/13 12:23:52;;;;;;;2.55;2.35;;;18.40;99.90;;;;;;5049455;28;20596;-84
2022/05/13 12:26:45;;;;;;;2.80;2.60;;;18.50;99.90;;;;;;5028910;28;20025;-84
2022/05/13 12:29:29;;;;;;;;;;;19.40;99.90;;;;;;5026430;28;20030;-84
2022/05/13 12:31:55;;;;;;;2.25;2.13;;;19.70;99.90;;;;;;5045902;28;19959;-84
2022/05/13 12:37:37;;;;;;;3.63;3.20;;;20.10;99.90;;;;;;5053079;28;20028;-83
2022/05/13 12:40:03;;;;;;;4.03;3.58;;;20.30;99.90;;;;;;5036913;28;20385;-85
2022/05/13 12:42:44;;;;;;;3.00;2.80;;;20.10;99.90;;;;;;5045160;28;20067;-83
2022/05/13 12:45:39;;;;;;;4.53;3.33;;;20.00;99.90;;;;;;5043348;28;20041;-84
2022/05/13 12:48:06;;;;;;;3.50;3.20;;;20.10;99.90;;;;;;5032321;28;20029;-83
2022/05/13 12:50:51;;;;;;;4.50;3.13;;;20.20;99.90;;;;;;5041427;28;20100;-84
2022/05/13 12:53:29;;;;;;;3.60;3.30;;;20.40;99.90;;;;;;5040339;28;20486;-82
2022/05/13 12:56:32;;;;;;;3.78;3.45;;;20.60;99.90;;;;;;5038524;28;20029;-82
2022/05/13 12:59:06;;;;;;;5.20;3.10;;;20.40;99.90;;;;;;5029485;28;20056;-83
2022/05/13 13:01:33;;;;;;;3.65;3.30;;;20.10;99.90;;;;;;5023190;28;20073;-83
2022/05/13 13:03:59;;;;;;;4.15;3.13;;;20.20;99.90;;;;;;5041625;28;20024;-83
2022/05/13 13:06:43;;;;;;;3.55;3.00;;;20.40;99.90;;;;;;5039474;28;20099;-82
2022/05/13 13:09:27;;;;;;;3.47;3.10;;;20.50;99.90;;;;;;5039606;28;20018;-81
2022/05/13 13:12:31;;;;;;;3.53;3.20;;;21.00;99.90;;;;;;5022505;28;20010;-81
2022/05/13 13:15:28;;;;;;;3.17;2.80;;;21.00;99.90;;;;;;4991791;28;20040;-82
2022/05/13 13:18:06;;;;;;;3.20;3.00;;;20.60;99.90;;;;;;5023352;28;20107;-82
2022/05/13 13:20:43;;;;;;;4.43;3.10;;;21.00;99.90;;;;;;5026268;28;20026;-82
2022/05/13 13:23:11;;;;;;;3.80;3.28;;;21.30;99.90;;;;;;5019164;28;20061;-82
2022/05/13 13:25:41;;;;;;;5.40;3.55;;;21.40;99.90;;;;;;5003081;28;20105;-81
2022/05/13 13:28:12;;;;;;;4.43;3.25;;;21.30;99.90;;;;;;5036520;28;20068;-80
2022/05/13 13:30:51;;;;;;;3.78;3.40;;;21.00;99.90;;;;;;5036404;28;20041;-81
2022/05/13 13:33:18;;;;;;;4.32;3.22;;;20.60;99.90;;;;;;5043755;28;20626;-80
2022/05/13 13:35:46;;;;;;;3.80;3.50;;;20.50;99.90;;;;;;5027320;28;20101;-80
2022/05/13 13:38:15;;;;;;;4.72;4.25;;;20.50;99.90;;;;;;5038238;28;20048;-81
2022/05/13 13:40:44;;;;;;;3.90;3.25;;;20.50;99.90;;;;;;5023975;28;20491;-80